Assonet, Massachusetts
Current Conditions -  °F | °C
As of 1:52 PM on Thursday 30 Oct 2014 (Local Time) from KTAN Reporting Station
Scattered Clouds Scattered Clouds  
Wind Chill: 59°   Ceiling: Unl
Heat Index: 59°   Visibility: 10mi
Dew Point: 36°   Wind: 3mph
Humidity: 42%   Direction: NA
Pressure: 29.9"   Gusts: NA
Location:  41.8°N, 71.07°W
Report Text: KTAN 301752Z AUTO VRB03KT 10SM FEW050 SCT070 15/02 A2990 RMK AO2 SLP127 T01500022 10161 20033 56013
Loading
Personal Weather Stations






























Interactive Weather Map New forecast layout! Learn more

10-Day Weather Forecast

Advertisements
Track Severe Weather on mobile